WST516 MYEH-MYNN
Flight info
| Callsign | WST516 |
|---|---|
| Flight time | 0h 22m |
| Altitude | 6000 |
| Route | CHOIE2 HEKOP |
| Aircraft | E145/M-SDFGIRW/S |
Departure
| Time | 2026-05-04 20:17 |
|---|---|
| Airport | North Eleuthera Airport (MYEH) |
Arrival
| Time | 2026-05-04 20:39 |
|---|---|
| Airport | Lynden Pindling International Airport (MYNN) |
| Time | Latitude | Longitude | Altitude | Speed | Heading |
|---|---|---|---|---|---|
| 2026-05-04 20:13 | 25.47640 | -76.68191 | 25 ft | 0 kts | 66° |
| 2026-05-04 20:14 | 25.47636 | -76.68169 | 25 ft | 8 kts | 127° |
| 2026-05-04 20:14 | 25.47553 | -76.68184 | 24 ft | 15 kts | 228° |
| 2026-05-04 20:14 | 25.47499 | -76.68304 | 23 ft | 19 kts | 246° |
| 2026-05-04 20:15 | 25.47448 | -76.68452 | 22 ft | 21 kts | 248° |
| 2026-05-04 20:15 | 25.47391 | -76.68613 | 22 ft | 23 kts | 247° |
| 2026-05-04 20:15 | 25.47337 | -76.68750 | 23 ft | 18 kts | 249° |
| 2026-05-04 20:15 | 25.47292 | -76.68891 | 22 ft | 20 kts | 252° |
| 2026-05-04 20:16 | 25.47275 | -76.68966 | 23 ft | 2 kts | 202° |
| 2026-05-04 20:16 | 25.47269 | -76.68948 | 23 ft | 3 kts | 76° |
| 2026-05-04 20:16 | 25.47305 | -76.68847 | 23 ft | 48 kts | 68° |
| 2026-05-04 20:16 | 25.47524 | -76.68242 | 28 ft | 116 kts | 69° |
| 2026-05-04 20:17 | 25.47829 | -76.67327 | 399 ft | 135 kts | 70° |
| 2026-05-04 20:17 | 25.48201 | -76.66312 | 894 ft | 150 kts | 65° |
| 2026-05-04 20:17 | 25.48638 | -76.65168 | 1122 ft | 181 kts | 67° |
| 2026-05-04 20:17 | 25.49150 | -76.63763 | 1329 ft | 209 kts | 67° |
| 2026-05-04 20:18 | 25.49697 | -76.62253 | 1617 ft | 212 kts | 68° |
| 2026-05-04 20:18 | 25.50463 | -76.60800 | 1714 ft | 232 kts | 44° |
| 2026-05-04 20:18 | 25.51942 | -76.60027 | 2083 ft | 243 kts | 9° |
| 2026-05-04 20:18 | 25.53620 | -76.60329 | 2488 ft | 251 kts | 335° |
| 2026-05-04 20:19 | 25.54898 | -76.61616 | 2922 ft | 257 kts | 301° |
| 2026-05-04 20:19 | 25.55341 | -76.63504 | 3480 ft | 255 kts | 268° |
| 2026-05-04 20:19 | 25.54856 | -76.65348 | 4009 ft | 254 kts | 248° |
| 2026-05-04 20:19 | 25.54514 | -76.67268 | 4471 ft | 253 kts | 266° |
| 2026-05-04 20:20 | 25.54396 | -76.69140 | 4916 ft | 253 kts | 267° |
| 2026-05-04 20:20 | 25.54306 | -76.71079 | 5407 ft | 252 kts | 267° |
| 2026-05-04 20:20 | 25.54224 | -76.73011 | 5860 ft | 252 kts | 268° |
| 2026-05-04 20:20 | 25.54143 | -76.74985 | 5945 ft | 267 kts | 267° |
| 2026-05-04 20:21 | 25.54058 | -76.77047 | 5941 ft | 264 kts | 268° |
| 2026-05-04 20:21 | 25.53976 | -76.79019 | 5937 ft | 250 kts | 268° |
| 2026-05-04 20:21 | 25.53824 | -76.82708 | 5934 ft | 228 kts | 268° |
| 2026-05-04 20:22 | 25.53759 | -76.84270 | 5935 ft | 220 kts | 268° |
| 2026-05-04 20:22 | 25.53730 | -76.84966 | 5936 ft | 217 kts | 267° |
| 2026-05-04 20:22 | 25.53662 | -76.86616 | 5936 ft | 209 kts | 267° |
| 2026-05-04 20:22 | 25.53593 | -76.88238 | 5951 ft | 215 kts | 267° |
| 2026-05-04 20:23 | 25.53523 | -76.89919 | 5952 ft | 226 kts | 267° |
| 2026-05-04 20:23 | 25.53346 | -76.91688 | 5944 ft | 236 kts | 252° |
| 2026-05-04 20:23 | 25.52594 | -76.93339 | 5955 ft | 244 kts | 243° |
| 2026-05-04 20:23 | 25.51783 | -76.95007 | 5948 ft | 252 kts | 243° |
| 2026-05-04 20:24 | 25.50941 | -76.96741 | 5948 ft | 258 kts | 243° |
| 2026-05-04 20:24 | 25.50072 | -76.98528 | 5944 ft | 264 kts | 243° |
| 2026-05-04 20:24 | 25.49204 | -77.00315 | 5941 ft | 264 kts | 243° |
| 2026-05-04 20:24 | 25.48338 | -77.02097 | 5877 ft | 262 kts | 243° |
| 2026-05-04 20:25 | 25.47484 | -77.03851 | 5626 ft | 256 kts | 243° |
| 2026-05-04 20:25 | 25.46652 | -77.05562 | 5375 ft | 248 kts | 243° |
| 2026-05-04 20:25 | 25.45844 | -77.07221 | 5128 ft | 242 kts | 244° |
| 2026-05-04 20:25 | 25.45066 | -77.08820 | 4875 ft | 236 kts | 243° |
| 2026-05-04 20:26 | 25.44288 | -77.10417 | 4620 ft | 232 kts | 244° |
| 2026-05-04 20:26 | 25.43535 | -77.11963 | 4375 ft | 228 kts | 243° |
| 2026-05-04 20:26 | 25.42789 | -77.13493 | 4130 ft | 225 kts | 244° |
| 2026-05-04 20:26 | 25.42038 | -77.15035 | 3895 ft | 236 kts | 244° |
| 2026-05-04 20:27 | 25.41215 | -77.16725 | 3666 ft | 256 kts | 243° |
| 2026-05-04 20:27 | 25.40349 | -77.18499 | 3438 ft | 268 kts | 243° |
| 2026-05-04 20:27 | 25.39478 | -77.20282 | 3190 ft | 259 kts | 243° |
| 2026-05-04 20:27 | 25.38640 | -77.21997 | 2943 ft | 252 kts | 243° |
| 2026-05-04 20:28 | 25.37818 | -77.23681 | 2693 ft | 246 kts | 243° |
| 2026-05-04 20:28 | 25.37008 | -77.25339 | 2445 ft | 241 kts | 243° |
| 2026-05-04 20:28 | 25.36203 | -77.26986 | 2205 ft | 246 kts | 243° |
| 2026-05-04 20:28 | 25.35384 | -77.28661 | 1981 ft | 250 kts | 244° |
| 2026-05-04 20:29 | 25.34579 | -77.30344 | 1930 ft | 244 kts | 246° |
| 2026-05-04 20:29 | 25.33862 | -77.32002 | 1928 ft | 237 kts | 246° |
| 2026-05-04 20:29 | 25.33149 | -77.33637 | 1929 ft | 232 kts | 246° |
| 2026-05-04 20:29 | 25.32460 | -77.35216 | 1928 ft | 227 kts | 246° |
| 2026-05-04 20:30 | 25.31787 | -77.36760 | 1928 ft | 222 kts | 246° |
| 2026-05-04 20:30 | 25.31121 | -77.38284 | 1928 ft | 218 kts | 246° |
| 2026-05-04 20:30 | 25.30460 | -77.39796 | 1928 ft | 215 kts | 246° |
| 2026-05-04 20:30 | 25.29821 | -77.41259 | 1930 ft | 211 kts | 246° |
| 2026-05-04 20:31 | 25.29184 | -77.42718 | 1930 ft | 208 kts | 246° |
| 2026-05-04 20:31 | 25.28561 | -77.44143 | 1927 ft | 205 kts | 246° |
| 2026-05-04 20:31 | 25.27942 | -77.45558 | 1932 ft | 202 kts | 246° |
| 2026-05-04 20:31 | 25.27334 | -77.46950 | 1926 ft | 200 kts | 246° |
| 2026-05-04 20:32 | 25.26719 | -77.48354 | 1815 ft | 204 kts | 246° |
| 2026-05-04 20:32 | 25.26092 | -77.49786 | 1701 ft | 208 kts | 246° |
| 2026-05-04 20:32 | 25.25462 | -77.51226 | 1634 ft | 209 kts | 246° |
| 2026-05-04 20:32 | 25.24832 | -77.52663 | 1606 ft | 207 kts | 246° |
| 2026-05-04 20:33 | 25.24206 | -77.54091 | 1580 ft | 206 kts | 246° |
| 2026-05-04 20:33 | 25.23545 | -77.55482 | 1552 ft | 205 kts | 239° |
| 2026-05-04 20:33 | 25.22736 | -77.56801 | 1536 ft | 203 kts | 237° |
| 2026-05-04 20:33 | 25.21958 | -77.58080 | 1527 ft | 201 kts | 238° |
| 2026-05-04 20:34 | 25.21178 | -77.59361 | 1529 ft | 199 kts | 238° |
| 2026-05-04 20:34 | 25.20413 | -77.60617 | 1528 ft | 196 kts | 238° |
| 2026-05-04 20:34 | 25.19428 | -77.61616 | 1535 ft | 195 kts | 201° |
| 2026-05-04 20:34 | 25.18115 | -77.61652 | 1551 ft | 189 kts | 155° |
| 2026-05-04 20:35 | 25.17125 | -77.60814 | 1596 ft | 168 kts | 132° |
| 2026-05-04 20:35 | 25.16338 | -77.59956 | 1523 ft | 153 kts | 132° |
| 2026-05-04 20:35 | 25.15575 | -77.59115 | 1552 ft | 154 kts | 132° |
| 2026-05-04 20:35 | 25.14811 | -77.58268 | 1596 ft | 157 kts | 133° |
| 2026-05-04 20:36 | 25.14047 | -77.57401 | 1630 ft | 159 kts | 131° |
| 2026-05-04 20:36 | 25.13265 | -77.56503 | 1637 ft | 162 kts | 133° |
| 2026-05-04 20:36 | 25.12468 | -77.55611 | 1633 ft | 165 kts | 133° |
| 2026-05-04 20:36 | 25.11655 | -77.54708 | 1632 ft | 163 kts | 133° |
| 2026-05-04 20:37 | 25.10865 | -77.53832 | 1631 ft | 161 kts | 132° |
| 2026-05-04 20:37 | 25.10072 | -77.52953 | 1554 ft | 165 kts | 133° |
| 2026-05-04 20:37 | 25.09227 | -77.52048 | 1420 ft | 170 kts | 134° |
| 2026-05-04 20:37 | 25.08350 | -77.51133 | 1261 ft | 178 kts | 134° |
| 2026-05-04 20:38 | 25.07935 | -77.50689 | 1147 ft | 174 kts | 131° |
| 2026-05-04 20:38 | 25.07147 | -77.49809 | 878 ft | 153 kts | 131° |
| 2026-05-04 20:38 | 25.06427 | -77.48981 | 495 ft | 147 kts | 131° |
| 2026-05-04 20:38 | 25.05686 | -77.48152 | 247 ft | 155 kts | 134° |
| 2026-05-04 20:39 | 25.04940 | -77.47307 | 48 ft | 145 kts | 131° |
| 2026-05-04 20:39 | 25.04307 | -77.46594 | 22 ft | 96 kts | 135° |
| 2026-05-04 20:39 | 25.04136 | -77.46349 | 23 ft | 18 kts | 102° |
| 2026-05-04 20:39 | 25.04110 | -77.46256 | 22 ft | 0 kts | 109° |
| 2026-05-04 20:40 | 25.04110 | -77.46255 | 22 ft | 0 kts | 109° |
| 2026-05-04 20:40 | 25.04101 | -77.46213 | 22 ft | 8 kts | 96° |
| 2026-05-04 20:40 | 25.04147 | -77.46172 | 23 ft | 16 kts | 331° |
| 2026-05-04 20:40 | 25.04235 | -77.46262 | 25 ft | 17 kts | 318° |
| 2026-05-04 20:41 | 25.04324 | -77.46355 | 27 ft | 18 kts | 314° |
| 2026-05-04 20:41 | 25.04423 | -77.46466 | 26 ft | 23 kts | 315° |
| 2026-05-04 20:41 | 25.04552 | -77.46608 | 24 ft | 27 kts | 314° |
| 2026-05-04 20:41 | 25.04672 | -77.46736 | 23 ft | 11 kts | 334° |
| 2026-05-04 20:42 | 25.04742 | -77.46700 | 24 ft | 12 kts | 46° |
| 2026-05-04 20:42 | 25.04807 | -77.46634 | 26 ft | 13 kts | 45° |
| 2026-05-04 20:42 | 25.04834 | -77.46587 | 28 ft | 3 kts | 43° |
| 2026-05-04 20:42 | 25.04838 | -77.46584 | 28 ft | 0 kts | 38° |